Camaguey, Cuba
Current Conditions -  °F | °C
As of 2:50 AM on Tuesday 21 Oct 2014 (Local Time) from MUCM Reporting Station
Clear Clear  
Wind Chill: 73°   Ceiling: Unl
Heat Index: 73°   Visibility: 6mi
Dew Point: 70°   Wind: 6mph
Humidity: 88%   Direction: 80°E
Pressure: 29.91"   Gusts: NA
Location:  21.36°N, 77.8°W
Report Text: MUCM 210650Z 08005KT 9000 SKC 23/21 Q1013
Loading
Personal Weather Stations






























Interactive Weather Map
Tropical Storm Tracking
New forecast layout! Learn more

10-Day Weather Forecast

Advertisements
Track Severe Weather on mobile